createdAt,value
2022-08-28T00:00:59.259Z,95807.16
2022-08-28T00:03:46.261Z,95807.78
2022-08-28T00:06:33.601Z,95811.69
2022-08-28T00:09:20.913Z,95811.78
2022-08-28T00:12:08.856Z,95817.06
2022-08-28T00:14:55.842Z,95814.38
2022-08-28T00:17:43.329Z,95820.19
2022-08-28T00:20:32.069Z,95811.63
2022-08-28T00:23:19.673Z,95813.44
2022-08-28T00:26:06.759Z,95814.63
2022-08-28T00:28:53.789Z,95814.47
2022-08-28T00:31:40.877Z,95815.75
2022-08-28T00:34:33.293Z,95813.09
2022-08-28T00:37:20.932Z,95808.88
2022-08-28T00:40:15.858Z,95808.84
2022-08-28T00:43:05.834Z,95810.13
2022-08-28T00:45:53.437Z,95812.84
2022-08-28T00:48:40.894Z,95805.41
2022-08-28T00:51:46.853Z,95804.81
2022-08-28T00:54:38.453Z,95802.13
2022-08-28T00:57:33.023Z,95805.09
2022-08-28T01:00:22.274Z,95798.63
2022-08-28T01:03:09.359Z,95800.44
2022-08-28T01:05:56.326Z,95797.00
2022-08-28T01:08:46.338Z,95803.09
2022-08-28T01:11:40.515Z,95797.88
2022-08-28T01:14:29.936Z,95793.84
2022-08-28T01:17:20.970Z,95796.81
2022-08-28T01:20:13.572Z,95790.34
2022-08-28T01:23:14.086Z,95798.94
2022-08-28T01:26:01.152Z,95795.63
2022-08-28T01:28:48.707Z,95793.81
2022-08-28T01:31:36.777Z,95797.25
2022-08-28T01:34:23.924Z,95804.16
2022-08-28T01:37:11.049Z,95792.78
2022-08-28T01:39:58.113Z,95794.44
2022-08-28T01:42:45.164Z,95799.53
2022-08-28T01:45:32.145Z,95798.81
2022-08-28T01:48:20.898Z,95799.94
2022-08-28T01:51:08.739Z,95800.13
2022-08-28T01:53:55.758Z,95802.41
2022-08-28T01:56:44.424Z,95799.75
2022-08-28T01:59:31.697Z,95804.91
2022-08-28T02:02:18.656Z,95797.63
2022-08-28T02:05:05.989Z,95801.34
2022-08-28T02:07:52.970Z,95804.22
2022-08-28T02:10:41.201Z,95800.16
2022-08-28T02:13:28.355Z,95801.19
2022-08-28T02:16:15.412Z,95791.03
2022-08-28T02:19:02.942Z,95793.78
2022-08-28T02:21:49.911Z,95798.66
2022-08-28T02:24:37.111Z,95798.13
2022-08-28T02:27:24.164Z,95800.06
2022-08-28T02:30:13.365Z,95793.94
2022-08-28T02:33:00.400Z,95788.44
2022-08-28T02:35:47.490Z,95794.09
2022-08-28T02:38:34.746Z,95793.41
2022-08-28T02:41:21.720Z,95800.22
2022-08-28T02:44:09.494Z,95794.38
2022-08-28T02:46:56.462Z,95794.72
2022-08-28T02:49:43.626Z,95795.28
2022-08-28T02:52:30.551Z,95799.00
2022-08-28T02:55:19.552Z,95804.13
2022-08-28T02:58:09.702Z,95791.53
2022-08-28T03:00:57.996Z,95805.41
2022-08-28T03:03:46.190Z,95805.03
2022-08-28T03:06:33.849Z,95799.03
2022-08-28T03:09:20.811Z,95804.47
2022-08-28T03:12:10.758Z,95808.66
2022-08-28T03:14:57.715Z,95803.34
2022-08-28T03:17:45.143Z,95801.94
2022-08-28T03:20:35.163Z,95800.47
2022-08-28T03:23:26.610Z,95799.41
2022-08-28T03:26:19.121Z,95806.88
2022-08-28T03:29:06.182Z,95806.59
2022-08-28T03:31:53.268Z,95797.50
2022-08-28T03:34:41.123Z,95805.56
2022-08-28T03:37:28.119Z,95805.19
2022-08-28T03:40:15.794Z,95811.88
2022-08-28T03:43:02.833Z,95808.56
2022-08-28T03:46:02.435Z,95807.69
2022-08-28T03:48:50.976Z,95812.00
2022-08-28T03:51:38.412Z,95810.75
2022-08-28T03:54:25.654Z,95816.81
2022-08-28T03:57:12.635Z,95812.75
2022-08-28T03:59:59.925Z,95804.31
2022-08-28T04:02:46.973Z,95805.09
2022-08-28T04:05:35.127Z,95809.69
2022-08-28T04:08:23.127Z,95812.50
2022-08-28T04:11:10.827Z,95813.28
2022-08-28T04:13:58.233Z,95813.84
2022-08-28T04:16:45.176Z,95814.47
2022-08-28T04:19:32.279Z,95817.22
2022-08-28T04:22:19.362Z,95817.66
2022-08-28T04:25:07.617Z,95823.78
2022-08-28T04:27:54.606Z,95822.09
2022-08-28T04:30:41.999Z,95812.91
2022-08-28T04:33:31.309Z,95812.97
2022-08-28T04:36:18.843Z,95811.84
2022-08-28T04:39:10.323Z,95810.72
2022-08-28T04:41:57.342Z,95819.31
2022-08-28T04:44:44.355Z,95818.72
2022-08-28T04:47:31.278Z,95816.84
2022-08-28T04:50:18.333Z,95818.78
2022-08-28T04:53:05.250Z,95820.28
2022-08-28T04:55:54.551Z,95821.44
2022-08-28T04:58:44.196Z,95830.84
2022-08-28T05:01:31.700Z,95829.34
2022-08-28T05:04:19.834Z,95829.34
2022-08-28T05:07:06.896Z,95826.84
2022-08-28T05:09:54.652Z,95833.31
2022-08-28T05:12:41.695Z,95824.56
2022-08-28T05:15:29.093Z,95828.34
2022-08-28T05:18:17.588Z,95826.63
2022-08-28T05:21:04.711Z,95834.88
2022-08-28T05:23:56.577Z,95842.00
2022-08-28T05:26:44.367Z,95834.97
2022-08-28T05:29:35.789Z,95831.22
2022-08-28T05:32:22.793Z,95834.72
2022-08-28T05:35:09.837Z,95838.09
2022-08-28T05:37:56.753Z,95846.59
2022-08-28T05:40:47.965Z,95847.09
2022-08-28T05:43:35.102Z,95853.47
2022-08-28T05:46:22.571Z,95853.34
2022-08-28T05:49:10.482Z,95843.69
2022-08-28T05:51:57.695Z,95852.06
2022-08-28T05:54:44.816Z,95857.47
2022-08-28T05:57:31.743Z,95861.06
2022-08-28T06:00:18.708Z,95863.09
2022-08-28T06:03:05.928Z,95868.66
2022-08-28T06:05:56.065Z,95877.41
2022-08-28T06:08:56.392Z,95866.75
2022-08-28T06:11:47.468Z,95872.13
2022-08-28T06:14:35.008Z,95865.97
2022-08-28T06:17:23.645Z,95868.88
2022-08-28T06:20:11.375Z,95867.88
2022-08-28T06:22:58.708Z,95868.06
2022-08-28T06:25:49.269Z,95870.91
2022-08-28T06:28:36.323Z,95880.50
2022-08-28T06:31:25.441Z,95882.66
2022-08-28T06:34:14.708Z,95875.81
2022-08-28T06:37:01.765Z,95886.34
2022-08-28T06:39:48.718Z,95879.44
2022-08-28T06:42:35.660Z,95886.50
2022-08-28T06:45:22.614Z,95882.84
2022-08-28T06:48:11.481Z,95886.22
2022-08-28T06:50:59.294Z,95886.09
2022-08-28T06:53:47.283Z,95897.56
2022-08-28T06:56:34.797Z,95897.00
2022-08-28T06:59:21.772Z,95896.91
2022-08-28T07:02:09.475Z,95898.44
2022-08-28T07:04:56.511Z,95905.66
2022-08-28T07:07:43.594Z,95905.66
2022-08-28T07:10:31.419Z,95915.81
2022-08-28T07:13:18.556Z,95924.34
2022-08-28T07:16:05.843Z,95922.38
2022-08-28T07:18:53.321Z,95924.69
2022-08-28T07:21:44.004Z,95937.06
2022-08-28T07:24:31.016Z,95934.00
2022-08-28T07:27:19.169Z,95939.50
2022-08-28T07:30:07.272Z,95938.50
2022-08-28T07:32:54.280Z,95944.63
2022-08-28T07:35:44.322Z,95951.03
2022-08-28T07:38:31.333Z,95942.00
2022-08-28T07:41:22.125Z,95943.78
2022-08-28T07:44:30.303Z,95953.94
2022-08-28T07:47:18.643Z,95940.84
2022-08-28T07:50:06.108Z,95945.28
2022-08-28T07:52:53.032Z,95941.53
2022-08-28T07:55:40.009Z,95947.09
2022-08-28T07:58:26.978Z,95943.41
2022-08-28T08:01:14.420Z,95950.00
2022-08-28T08:04:02.435Z,95954.41
2022-08-28T08:06:57.034Z,95957.31
2022-08-28T08:09:46.570Z,95959.59
2022-08-28T08:12:34.738Z,95967.88
2022-08-28T08:15:22.016Z,95965.88
2022-08-28T08:18:09.004Z,95972.75
2022-08-28T08:20:56.287Z,95977.88
2022-08-28T08:23:43.641Z,95978.56
2022-08-28T08:26:30.950Z,95986.72
2022-08-28T08:29:18.011Z,95976.44
2022-08-28T08:32:09.403Z,95984.00
2022-08-28T08:34:56.363Z,95987.75
2022-08-28T08:37:43.396Z,95990.22
2022-08-28T08:40:30.676Z,95992.06
2022-08-28T08:43:20.077Z,95990.66
2022-08-28T08:46:09.288Z,95994.91
2022-08-28T08:48:59.913Z,96002.03
2022-08-28T08:51:53.083Z,96005.97
2022-08-28T08:54:46.420Z,96004.59
2022-08-28T08:57:36.285Z,96006.22
2022-08-28T09:00:23.744Z,96013.25
2022-08-28T09:03:20.498Z,96013.31
2022-08-28T09:06:35.911Z,96018.41
2022-08-28T09:09:42.046Z,96015.53
2022-08-28T09:12:31.271Z,96017.16
2022-08-28T09:15:25.315Z,96006.34
2022-08-28T09:18:22.478Z,96012.25
2022-08-28T09:21:09.502Z,96010.66
2022-08-28T09:24:00.572Z,96013.16
2022-08-28T09:27:33.432Z,96010.00
2022-08-28T09:30:31.812Z,96007.88
2022-08-28T09:33:28.497Z,96012.66
2022-08-28T09:36:33.294Z,96012.66
2022-08-28T09:39:22.035Z,96018.78
2022-08-28T09:42:43.047Z,96016.38
2022-08-28T09:45:30.134Z,96017.81
2022-08-28T09:48:44.356Z,96021.78
2022-08-28T09:51:31.455Z,96021.69
2022-08-28T09:54:45.565Z,96026.22
2022-08-28T09:57:32.554Z,96027.66
2022-08-28T10:00:19.591Z,96020.44
2022-08-28T10:03:17.200Z,96018.25
2022-08-28T10:06:35.096Z,96022.44
2022-08-28T10:09:40.604Z,96020.78
2022-08-28T10:12:54.020Z,96022.63
2022-08-28T10:15:59.177Z,96025.06
2022-08-28T10:19:10.113Z,96030.19
2022-08-28T10:22:18.075Z,96028.63
2022-08-28T10:25:14.884Z,96029.00
2022-08-28T10:28:39.714Z,96020.91
2022-08-28T10:31:52.386Z,96028.28
2022-08-28T10:34:57.585Z,96030.50
2022-08-28T10:38:16.863Z,96031.25
2022-08-28T10:41:13.480Z,96037.38
2022-08-28T10:44:03.012Z,96041.28
2022-08-28T10:46:57.343Z,96036.63
2022-08-28T10:49:49.454Z,96032.16
2022-08-28T10:52:41.663Z,96032.47
2022-08-28T10:55:39.463Z,96032.06
2022-08-28T10:58:27.647Z,96028.81
2022-08-28T11:01:24.982Z,96030.97
2022-08-28T11:04:25.157Z,96033.53
2022-08-28T11:07:21.295Z,96033.41
2022-08-28T11:10:45.417Z,96036.81
2022-08-28T11:13:40.629Z,96037.16
2022-08-28T11:16:28.010Z,96041.56
2022-08-28T11:19:43.393Z,96039.94
2022-08-28T11:22:49.236Z,96037.03
2022-08-28T11:25:51.491Z,96029.03
2022-08-28T11:28:47.580Z,96009.63
2022-08-28T11:31:38.266Z,96007.19
2022-08-28T11:35:03.038Z,96008.78
2022-08-28T11:37:53.334Z,96014.00
2022-08-28T11:40:51.038Z,96017.19
2022-08-28T11:43:44.809Z,96004.16
2022-08-28T11:46:34.299Z,96006.03
2022-08-28T11:49:24.656Z,96016.72
2022-08-28T11:52:38.346Z,96011.22
2022-08-28T11:55:36.003Z,95996.56
2022-08-28T11:58:41.289Z,96009.25
2022-08-28T12:01:33.788Z,95999.97
2022-08-28T12:04:23.764Z,95965.88
2022-08-28T12:07:13.937Z,95975.69
2022-08-28T12:10:04.939Z,95983.91
2022-08-28T12:12:55.707Z,95991.88
2022-08-28T12:15:43.032Z,95995.84
2022-08-28T12:18:40.357Z,95987.78
2022-08-28T12:21:29.229Z,95968.66
2022-08-28T12:24:21.869Z,95973.75
2022-08-28T12:27:09.829Z,95989.53
2022-08-28T12:29:59.697Z,95991.66
2022-08-28T12:33:03.626Z,96006.31
2022-08-28T12:35:51.105Z,96011.75
2022-08-28T12:38:38.301Z,95986.00
2022-08-28T12:41:25.477Z,95973.09
2022-08-28T12:44:15.510Z,95978.75
2022-08-28T12:47:02.826Z,95980.84
2022-08-28T12:49:49.800Z,95981.72
2022-08-28T12:52:47.412Z,95977.84
2022-08-28T12:55:34.723Z,95993.19
2022-08-28T12:58:31.478Z,95997.06
2022-08-28T13:01:21.667Z,95981.53
2022-08-28T13:04:31.349Z,95963.25
2022-08-28T13:07:24.028Z,95975.03
2022-08-28T13:10:39.307Z,95962.47
2022-08-28T13:13:52.504Z,95958.22
2022-08-28T13:16:41.366Z,95951.38
2022-08-28T13:19:31.097Z,95960.34
2022-08-28T13:22:41.814Z,95962.63
2022-08-28T13:25:38.353Z,95947.91
2022-08-28T13:28:25.569Z,95959.72
2022-08-28T13:31:30.851Z,95971.50
2022-08-28T13:34:19.203Z,95953.22
2022-08-28T13:37:14.703Z,95947.47
2022-08-28T13:40:19.742Z,95939.41
2022-08-28T13:43:16.897Z,95944.91
2022-08-28T13:46:03.992Z,95950.06
2022-08-28T13:48:51.101Z,95947.72
2022-08-28T13:51:39.461Z,95926.81
2022-08-28T13:54:27.977Z,95940.50
2022-08-28T13:57:15.535Z,95954.25
2022-08-28T14:00:03.416Z,95939.03
2022-08-28T14:03:09.295Z,95940.44
2022-08-28T14:05:56.805Z,95949.00
2022-08-28T14:08:45.560Z,95936.78
2022-08-28T14:11:33.331Z,95938.00
2022-08-28T14:14:20.784Z,95921.13
2022-08-28T14:17:08.933Z,95956.03
2022-08-28T14:19:56.117Z,95939.34
2022-08-28T14:22:43.095Z,95927.53
2022-08-28T14:25:30.164Z,95926.28
2022-08-28T14:28:17.866Z,95938.38
2022-08-28T14:31:05.849Z,95920.44
2022-08-28T14:33:52.953Z,95937.28
2022-08-28T14:36:41.399Z,95935.56
2022-08-28T14:39:28.645Z,95938.16
2022-08-28T14:42:15.789Z,95937.50
2022-08-28T14:45:02.965Z,95941.16
2022-08-28T14:47:49.872Z,95949.34
2022-08-28T14:50:42.007Z,95945.75
2022-08-28T14:53:29.072Z,95955.88
2022-08-28T14:56:16.121Z,95941.22
2022-08-28T14:59:04.992Z,95939.88
2022-08-28T15:01:55.263Z,95938.09
2022-08-28T15:04:42.331Z,95935.28
2022-08-28T15:07:29.804Z,95933.78
2022-08-28T15:10:17.282Z,95935.91
2022-08-28T15:13:04.753Z,95933.59
2022-08-28T15:16:02.766Z,95921.97
2022-08-28T15:18:50.251Z,95907.53
2022-08-28T15:21:41.869Z,95925.91
2022-08-28T15:24:31.558Z,95932.19
2022-08-28T15:27:18.575Z,95928.09
2022-08-28T15:30:06.372Z,95927.56
2022-08-28T15:32:54.364Z,95915.84
2022-08-28T15:35:41.401Z,95917.81
2022-08-28T15:38:28.617Z,95919.97
2022-08-28T15:41:24.929Z,95924.56
2022-08-28T15:44:15.036Z,95931.78
2022-08-28T15:47:04.967Z,95917.34
2022-08-28T15:49:56.121Z,95915.84
2022-08-28T15:52:44.435Z,95926.28
2022-08-28T15:55:32.470Z,95927.63
2022-08-28T15:58:19.469Z,95929.22
2022-08-28T16:01:07.922Z,95933.22
2022-08-28T16:03:55.095Z,95936.94
2022-08-28T16:06:42.963Z,95938.66
2022-08-28T16:09:30.050Z,95935.13
2022-08-28T16:12:17.898Z,95940.47
2022-08-28T16:15:05.329Z,95948.56
2022-08-28T16:17:52.753Z,95941.47
2022-08-28T16:20:44.611Z,95953.94
2022-08-28T16:23:32.702Z,95948.47
2022-08-28T16:26:19.943Z,95949.13
2022-08-28T16:29:07.609Z,95947.81
2022-08-28T16:31:55.130Z,95945.78
2022-08-28T16:34:44.771Z,95950.38
2022-08-28T16:37:38.351Z,95948.19
2022-08-28T16:40:27.212Z,95943.28
2022-08-28T16:43:14.720Z,95934.13
2022-08-28T16:46:02.980Z,95927.59
2022-08-28T16:48:51.284Z,95940.22
2022-08-28T16:51:39.100Z,95934.75
2022-08-28T16:54:26.125Z,95935.16
2022-08-28T16:57:13.081Z,95941.13
2022-08-28T17:00:00.510Z,95943.34
2022-08-28T17:02:48.087Z,95939.91
2022-08-28T17:05:35.985Z,95946.31
2022-08-28T17:08:25.450Z,95958.72
2022-08-28T17:11:13.013Z,95954.75
2022-08-28T17:14:00.443Z,95963.28
2022-08-28T17:16:48.582Z,95960.69
2022-08-28T17:19:36.903Z,95969.13
2022-08-28T17:22:32.098Z,95973.09
2022-08-28T17:25:19.227Z,95964.66
2022-08-28T17:28:06.479Z,95965.78
2022-08-28T17:30:53.692Z,95962.97
2022-08-28T17:33:42.618Z,95970.44
2022-08-28T17:36:33.559Z,95964.50
2022-08-28T17:39:21.360Z,95971.69
2022-08-28T17:42:08.479Z,95979.16
2022-08-28T17:44:56.201Z,95987.41
2022-08-28T17:47:43.647Z,95987.75
2022-08-28T17:50:30.869Z,95992.69
2022-08-28T17:53:18.836Z,96000.28
2022-08-28T17:56:06.458Z,95996.13
2022-08-28T17:58:53.557Z,95996.25
2022-08-28T18:01:45.038Z,95998.25
2022-08-28T18:04:33.020Z,96002.16
2022-08-28T18:07:20.250Z,96005.44
2022-08-28T18:10:11.834Z,96007.44
2022-08-28T18:12:59.810Z,96010.59
2022-08-28T18:15:50.952Z,96017.16
2022-08-28T18:18:43.935Z,96020.63
2022-08-28T18:21:31.344Z,96029.03
2022-08-28T18:24:18.408Z,96024.06
2022-08-28T18:27:07.617Z,96025.63
2022-08-28T18:29:54.683Z,96024.47
2022-08-28T18:32:41.673Z,96038.78
2022-08-28T18:35:32.150Z,96037.91
2022-08-28T18:38:21.960Z,96029.72
2022-08-28T18:41:09.612Z,96043.81
2022-08-28T18:43:57.681Z,96041.91
2022-08-28T18:46:50.312Z,96041.78
2022-08-28T18:49:37.359Z,96050.03
2022-08-28T18:52:24.417Z,96047.59
2022-08-28T18:55:11.632Z,96057.13
2022-08-28T18:58:00.737Z,96061.59
2022-08-28T19:00:48.987Z,96064.31
2022-08-28T19:03:36.260Z,96069.75
2022-08-28T19:06:23.447Z,96069.13
2022-08-28T19:09:19.253Z,96074.13
2022-08-28T19:12:07.905Z,96068.41
2022-08-28T19:14:57.754Z,96073.34
2022-08-28T19:17:45.038Z,96073.94
2022-08-28T19:20:33.199Z,96069.50
2022-08-28T19:23:20.237Z,96080.19
2022-08-28T19:26:08.197Z,96076.22
2022-08-28T19:28:55.409Z,96079.75
2022-08-28T19:31:43.861Z,96080.75
2022-08-28T19:34:32.265Z,96089.28
2022-08-28T19:37:19.305Z,96085.63
2022-08-28T19:40:07.254Z,96092.97
2022-08-28T19:42:54.412Z,96089.16
2022-08-28T19:45:42.504Z,96094.78
2022-08-28T19:48:29.454Z,96097.63
2022-08-28T19:51:23.182Z,96093.41
2022-08-28T19:54:14.104Z,96093.81
2022-08-28T19:57:01.511Z,96100.03
2022-08-28T19:59:48.458Z,96107.22
2022-08-28T20:02:35.553Z,96104.53
2022-08-28T20:05:23.945Z,96107.69
2022-08-28T20:08:11.106Z,96116.28
2022-08-28T20:10:59.425Z,96124.59
2022-08-28T20:13:46.408Z,96127.22
2022-08-28T20:16:37.536Z,96127.56
2022-08-28T20:19:24.625Z,96123.09
2022-08-28T20:22:12.224Z,96125.59
2022-08-28T20:24:59.704Z,96127.66
2022-08-28T20:27:46.627Z,96119.34
2022-08-28T20:30:33.699Z,96130.34
2022-08-28T20:33:20.629Z,96131.72
2022-08-28T20:36:15.312Z,96127.25
2022-08-28T20:39:09.732Z,96118.22
2022-08-28T20:41:56.969Z,96132.72
2022-08-28T20:44:43.975Z,96128.25
2022-08-28T20:47:30.924Z,96130.56
2022-08-28T20:50:17.940Z,96134.03
2022-08-28T20:53:04.941Z,96131.88
2022-08-28T20:55:56.596Z,96130.25
2022-08-28T20:58:43.654Z,96135.81
2022-08-28T21:01:31.039Z,96129.06
2022-08-28T21:04:19.091Z,96128.00
2022-08-28T21:07:06.464Z,96130.72
2022-08-28T21:10:04.967Z,96124.75
2022-08-28T21:12:54.855Z,96130.34
2022-08-28T21:15:41.881Z,96132.66
2022-08-28T21:18:29.237Z,96133.91
2022-08-28T21:21:16.856Z,96129.53
2022-08-28T21:24:09.257Z,96127.31
2022-08-28T21:26:57.939Z,96132.88
2022-08-28T21:29:46.227Z,96125.50
2022-08-28T21:32:34.451Z,96133.03
2022-08-28T21:35:21.580Z,96134.00
2022-08-28T21:38:08.501Z,96134.63
2022-08-28T21:40:55.452Z,96124.78
2022-08-28T21:43:44.415Z,96126.63
2022-08-28T21:46:31.476Z,96130.19
2022-08-28T21:49:18.580Z,96122.84
2022-08-28T21:52:05.871Z,96125.72
2022-08-28T21:55:06.590Z,96122.66
2022-08-28T21:57:53.506Z,96128.47
2022-08-28T22:00:40.503Z,96121.41
2022-08-28T22:03:28.797Z,96125.28
2022-08-28T22:06:20.100Z,96133.72
2022-08-28T22:09:08.384Z,96134.84
2022-08-28T22:11:55.396Z,96134.56
2022-08-28T22:14:42.451Z,96128.38
2022-08-28T22:17:29.726Z,96134.09
2022-08-28T22:20:16.704Z,96136.69
2022-08-28T22:23:12.719Z,96135.59
2022-08-28T22:26:06.172Z,96138.72
2022-08-28T22:28:53.815Z,96142.25
2022-08-28T22:31:44.695Z,96143.59
2022-08-28T22:34:40.077Z,96133.50
2022-08-28T22:37:27.171Z,96131.16
2022-08-28T22:40:14.339Z,96143.09
2022-08-28T22:43:01.323Z,96142.69
2022-08-28T22:45:48.519Z,96145.41
2022-08-28T22:48:35.730Z,96140.53
2022-08-28T22:51:22.785Z,96142.69
2022-08-28T22:54:09.774Z,96133.00
2022-08-28T22:56:56.692Z,96132.69
2022-08-28T22:59:43.633Z,96134.38
2022-08-28T23:02:30.716Z,96139.50
2022-08-28T23:05:18.002Z,96143.09
2022-08-28T23:08:05.016Z,96141.31
2022-08-28T23:10:59.731Z,96139.88
2022-08-28T23:13:46.823Z,96143.47
2022-08-28T23:16:35.184Z,96141.63
2022-08-28T23:19:22.680Z,96138.66
2022-08-28T23:22:09.967Z,96141.47
2022-08-28T23:24:56.909Z,96143.13
2022-08-28T23:27:45.370Z,96143.78
2022-08-28T23:30:32.489Z,96142.16
2022-08-28T23:33:24.069Z,96147.41
2022-08-28T23:36:12.423Z,96136.97
2022-08-28T23:38:59.401Z,96137.56
2022-08-28T23:41:46.988Z,96136.09
2022-08-28T23:44:34.431Z,96136.97
2022-08-28T23:47:22.464Z,96127.53
2022-08-28T23:50:14.744Z,96127.41
2022-08-28T23:53:03.120Z,96124.25
2022-08-28T23:55:51.357Z,96127.50
2022-08-28T23:58:38.293Z,96124.78
